Flag for Switzerland

Past Weather in 46°10'00"N, 8°46'17"E, Switzerland — Yesterday and Last 2 Weeks

Currently: 55 °F. Sunny. (Weather station: Locarno-Magadino, Switzerland). See more current weather

Past Weather in 46°10'00"N, 8°46'17"E — Graph

°F

46°10'00"N, 8°46'17"E Temperature Yesterday

Maximum temperature yesterday: 57 °F (at 3:50 pm)
Minimum temperature yesterday: 39 °F (at 11:20 pm)
Average temperature yesterday: 51 °F

High & Low Weather Summary for the Past Weeks

 TemperatureHumidityPressure
High66 °F (Feb 27, 11:20 am)100% (Feb 20, 8:50 am)30.69 "Hg (Feb 20, 8:50 am)
Low25 °F (Feb 15, 5:20 am)30% (Feb 27, 11:20 am)30.12 "Hg (Feb 17, 1:50 pm)
Average45 °F68%30.40 "Hg
* Reported Feb 14 2:20 pm — Mar 1 2:20 pm, 46°10'00"N, 8°46'17"E. Weather by CustomWeather, © 2021

Note: Actual official high and low records may vary slightly from our data, if they occured in-between our weather recording intervals... More about our weather records

46°10'00"N, 8°46'17"E Weather History for the Previous 24 Hours

Scroll right to see more
 ConditionsComfort  
Time TempWeatherWind HumidityBarometerVisibility
2:20 pm
Mon, Mar 1
55 °FSunny.6 mph38%30.39 "Hg10 mi
1:50 pm55 °FSunny.7 mph38%30.42 "Hg10 mi
1:20 pm54 °FSunny.6 mph38%30.42 "Hg10 mi
12:50 pm52 °FSunny.5 mph41%30.45 "Hg10 mi
12:20 pm52 °FCool.5 mph47%30.45 "HgN/A
11:50 am52 °FSunny.2 mph50%30.45 "Hg10 mi
11:20 am50 °FSunny.2 mph43%30.45 "Hg10 mi
10:50 am50 °FSunny.1 mph47%30.45 "Hg10 mi
10:20 am46 °FSunny.No wind62%30.45 "Hg10 mi
9:50 am45 °FSunny.2 mph66%30.48 "Hg10 mi
9:20 am43 °FSunny.2 mph71%30.48 "Hg10 mi
8:20 am34 °FSunny.1 mph93%30.48 "Hg10 mi
7:50 am32 °FSunny.No wind93%30.45 "Hg10 mi
7:20 am32 °FSunny.2 mph100%30.45 "Hg10 mi
6:50 am32 °FChilly.2 mph100%30.45 "HgN/A
6:20 am34 °FChilly.No wind93%30.45 "HgN/A
5:50 am34 °FChilly.1 mph93%30.45 "HgN/A
5:20 am32 °FChilly.No wind100%30.45 "HgN/A
4:50 am34 °FChilly.No wind93%30.45 "HgN/A
4:20 am34 °FChilly.No wind93%30.45 "HgN/A
3:50 am32 °FChilly.1 mph100%30.45 "HgN/A
3:20 am36 °FChilly.No wind87%30.45 "HgN/A
2:50 am34 °FChilly.2 mph93%30.45 "HgN/A
2:20 am36 °FChilly.2 mph87%30.45 "HgN/A
1:50 am36 °FChilly.No wind93%30.45 "HgN/A
1:20 am37 °FChilly.1 mph87%30.48 "HgN/A
12:50 am37 °FChilly.No wind87%30.45 "HgN/A
12:20 am37 °FChilly.2 mph81%30.45 "HgN/A
11:50 pm
Sun, Feb 28
39 °FChilly.No wind75%30.45 "HgN/A
11:20 pm39 °FChilly.No wind81%30.45 "HgN/A
10:50 pm41 °FQuite cool.No wind70%30.45 "HgN/A
10:20 pm41 °FQuite cool.No wind76%30.45 "HgN/A
9:50 pm43 °FQuite cool.1 mph66%30.45 "HgN/A
9:20 pm43 °FQuite cool.No wind71%30.45 "HgN/A
8:50 pm45 °FQuite cool.No wind66%30.42 "HgN/A
8:20 pm46 °FCool.No wind62%30.42 "HgN/A
7:50 pm48 °FCool.1 mph58%30.42 "HgN/A
7:20 pm48 °FCool.2 mph58%30.42 "HgN/A
6:50 pm50 °FCool.3 mph50%30.42 "HgN/A
6:20 pm50 °FPassing clouds.2 mph54%30.39 "HgN/A
5:50 pm54 °FCool.3 mph47%30.39 "HgN/A
5:20 pm54 °FCool.3 mph51%30.39 "HgN/A
4:50 pm55 °FRefreshingly cool.5 mph51%30.39 "HgN/A
4:20 pm55 °FRefreshingly cool.6 mph47%30.39 "HgN/A
3:50 pm57 °FRefreshingly cool.6 mph44%30.42 "HgN/A
3:20 pm55 °FRefreshingly cool.6 mph44%30.42 "HgN/A
Weather by CustomWeather, © 2021

See weather overview